Euskara    
Meteorología y climatología de Navarra
Datos de la estación - Meteo Navarra

Estación de Yesa GN

Altitud 487 m.


Datos desde el 14/01/2021 hasta el 15/01/2021 en horario solar
Los datos son PROVISIONALES

Anterior Página 1 de 1 Siguiente Descargar: Formato para Excel 2000 o superior   Formato csv   Formato para OpenOffice Calc
Fecha Temperatura Humedad relativa Radiación global Insolación Precipitación Vel. viento 10 m Vel. viento 10 m Dir. viento 10 m
°C % W/m² s l/m² m/s km/h °
14/01/2021 0:00 5.7 78 0.0 0 0.0 1.8 6.4 246
14/01/2021 0:10 5.5 78 0.0 0 0.0 1.2 4.4 283
14/01/2021 0:20 5.4 79 0.0 0 0.0 1.6 5.7 260
14/01/2021 0:30 5.7 76 0.0 0 0.0 1.6 5.9 264
14/01/2021 0:40 5.7 76 0.0 0 0.0 1.2 4.3 222
14/01/2021 0:50 5.6 75 0.0 0 0.0 1.2 4.1 296
14/01/2021 1:00 5.6 75 0.0 0 0.0 1.6 5.8 273
14/01/2021 1:10 5.9 74 0.0 0 0.0 0.8 3.0 248
14/01/2021 1:20 5.5 74 0.0 0 0.0 0.6 2.0 230
14/01/2021 1:30 5.7 73 0.0 0 0.0 0.8 3.0 221
14/01/2021 1:40 5.5 73 0.0 0 0.0 1.1 3.8 96
14/01/2021 1:50 5.5 74 0.0 0 0.0 0.9 3.2 125
14/01/2021 2:00 5.3 74 0.0 0 0.0 0.6 2.2 125
14/01/2021 2:10 4.8 75 0.0 0 0.0 1.0 3.6 47
14/01/2021 2:20 4.7 75 0.0 0 0.0 0.9 3.2 78
14/01/2021 2:30 4.7 74 0.0 0 0.0 1.4 5.0 245
14/01/2021 2:40 5.9 69 0.0 0 0.0 1.8 6.4 248
14/01/2021 2:50 5.8 68 0.0 0 0.0 1.6 5.8 262
14/01/2021 3:00 5.8 69 0.0 0 0.0 1.9 6.9 274
14/01/2021 3:10 6.1 67 0.0 0 0.0 1.3 4.5 239
14/01/2021 3:20 5.5 68 0.0 0 0.0 0.6 2.3 305
14/01/2021 3:30 5.2 70 0.0 0 0.0 0.8 2.9 118
14/01/2021 3:40 4.6 72 0.0 0 0.0 0.5 1.8 54
14/01/2021 3:50 4.0 74 0.0 0 0.0 0.5 1.7 316
14/01/2021 4:00 3.4 76 0.0 0 0.0 0.6 2.1 123
14/01/2021 4:10 3.2 77 0.0 0 0.0 0.3 1.2 7
14/01/2021 4:20 2.7 79 0.0 0 0.0 0.2 0.8 200
14/01/2021 4:30 2.3 81 0.0 0 0.0 0.5 1.9 328
14/01/2021 4:40 2.3 82 0.0 0 0.0 0.1 0.3 27
14/01/2021 4:50 2.0 83 0.0 0 0.0 0.9 3.3 20
14/01/2021 5:00 2.2 83 0.0 0 0.0 0.7 2.4 27
14/01/2021 5:10 2.0 82 0.0 0 0.0 0.8 2.9 119
14/01/2021 5:20 1.4 83 0.0 0 0.0 0.3 1.2 140
14/01/2021 5:30 1.1 85 0.0 0 0.0 0.8 2.7 83
14/01/2021 5:40 1.2 87 0.0 0 0.0 1.4 4.9 83
14/01/2021 5:50 0.8 87 0.0 0 0.0 0.8 2.9 103
14/01/2021 6:00 0.7 87 0.0 0 0.0 0.8 2.9 151
14/01/2021 6:10 0.5 87 0.0 0 0.0 1.4 4.9 114
14/01/2021 6:20 0.1 88 0.0 0 0.0 2.2 7.8 120
14/01/2021 6:30 -0.3 88 0.0 0 0.0 1.8 6.6 128
14/01/2021 6:40 -0.4 88 0.0 0 0.0 1.2 4.5 109
14/01/2021 6:50 -0.6 90 0.0 0 0.0 1.8 6.5 112
14/01/2021 7:00 -0.5 89 0.0 0 0.0 2.4 8.6 116
14/01/2021 7:10 -0.7 89 0.0 0 0.0 2.5 8.9 121
14/01/2021 7:20 -0.8 89 0.0 0 0.0 2.2 8.0 115
14/01/2021 7:30 -0.8 89 0.0 0 0.0 3.1 11.0 120
14/01/2021 7:40 -1.1 89 0.0 0 0.0 2.5 9.1 122
14/01/2021 7:50 -1.2 89 4.7 0 0.0 2.6 9.5 118
14/01/2021 8:00 -1.0 89 22.3 2 0.0 2.9 10.5 113
14/01/2021 8:10 -1.0 89 34.6 44 0.0 2.5 9.1 110
14/01/2021 8:20 -0.7 90 46.3 100 0.0 4.4 15.8 77
14/01/2021 8:30 -0.1 88 87.2 566 0.0 3.0 10.8 98
14/01/2021 8:40 -0.2 86 91.5 386 0.0 2.9 10.5 114
14/01/2021 8:50 0.3 86 185.3 600 0.0 2.2 8.0 124
14/01/2021 9:00 0.3 83 246.2 600 0.0 1.7 6.2 127
14/01/2021 9:10 0.9 81 290.2 600 0.0 2.1 7.5 120
14/01/2021 9:20 1.9 80 317.9 600 0.0 1.5 5.4 138
14/01/2021 9:30 2.9 77 333.4 600 0.0 1.6 5.6 131
14/01/2021 9:40 3.9 76 283.5 600 0.0 0.5 1.6 115
14/01/2021 9:50 5.5 72 287.9 600 0.0 0.6 2.2 146
14/01/2021 10:00 7.1 67 381.4 600 0.0 1.0 3.6 158
14/01/2021 10:10 8.3 65 391.2 600 0.0 1.3 4.5 168
14/01/2021 10:20 8.8 61 437.7 600 0.0 1.1 4.1 295
14/01/2021 10:30 9.1 60 457.1 600 0.0 1.4 5.1 143
14/01/2021 10:40 9.7 59 450.7 600 0.0 2.3 8.1 177
14/01/2021 10:50 9.6 59 447.3 600 0.0 1.2 4.2 124
14/01/2021 11:00 9.8 59 453.7 600 0.0 2.1 7.7 180
14/01/2021 11:10 10.1 60 453.7 600 0.0 2.6 9.5 133
14/01/2021 11:20 10.4 58 454.5 600 0.0 2.6 9.4 85
14/01/2021 11:30 10.8 58 464.6 600 0.0 2.2 8.0 186
14/01/2021 11:40 10.9 57 491.0 600 0.0 1.0 3.5 146
14/01/2021 11:50 10.8 57 523.0 600 0.0 2.2 8.0 212
14/01/2021 12:00 10.6 58 531.1 600 0.0 2.5 9.0 305
14/01/2021 12:10 10.4 59 504.4 600 0.0 2.9 10.5 290
14/01/2021 12:20 10.2 59 506.9 600 0.0 3.7 13.5 295
14/01/2021 12:30 9.8 60 497.3 600 0.0 4.2 14.9 298
14/01/2021 12:40 9.9 60 493.0 600 0.0 3.9 14.1 298
14/01/2021 12:50 9.8 60 496.4 600 0.0 4.8 17.2 297
14/01/2021 13:00 9.7 60 496.3 600 0.0 4.5 16.2 296
14/01/2021 13:10 9.6 59 498.0 600 0.0 4.8 17.4 315
14/01/2021 13:20 9.3 59 389.0 456 0.0 4.7 16.9 301
14/01/2021 13:30 9.0 60 144.8 98 0.0 2.5 9.1 306
14/01/2021 13:40 8.8 61 190.3 168 0.0 2.5 9.0 313
14/01/2021 13:50 8.9 60 265.0 406 0.0 4.0 14.2 310
14/01/2021 14:00 8.8 60 170.9 164 0.0 4.1 14.7 313
14/01/2021 14:10 9.0 61 185.7 212 0.0 4.0 14.5 324
14/01/2021 14:20 8.9 61 168.4 206 0.0 4.5 16.1 318
14/01/2021 14:30 8.6 61 145.4 136 0.0 4.6 16.5 322
14/01/2021 14:40 8.8 61 147.4 152 0.0 3.6 13.0 326
14/01/2021 14:50 8.7 61 66.9 16 0.0 1.1 4.0 207
14/01/2021 15:00 8.8 60 113.1 162 0.0 1.9 6.7 318
14/01/2021 15:10 9.1 60 211.8 428 0.0 2.7 9.5 3
14/01/2021 15:20 9.4 59 205.5 566 0.0 3.0 10.9 35
14/01/2021 15:30 9.5 60 65.9 54 0.0 1.6 5.9 197
14/01/2021 15:40 9.0 64 37.8 0 0.0 3.4 12.1 323
14/01/2021 15:50 8.7 66 35.1 0 0.0 4.2 15.1 301
14/01/2021 16:00 8.9 66 35.7 0 0.0 5.9 21.3 321
14/01/2021 16:10 9.2 65 34.0 0 0.0 5.6 20.1 308
14/01/2021 16:20 8.9 65 25.2 0 0.0 3.8 13.5 323
14/01/2021 16:30 8.9 66 16.7 0 0.0 3.2 11.4 265
14/01/2021 16:40 8.8 67 0.2 0 0.0 1.4 5.0 239
14/01/2021 16:50 8.7 68 0.0 0 0.0 1.9 6.8 293
14/01/2021 17:00 8.8 68 0.0 0 0.0 2.9 10.4 292
14/01/2021 17:10 9.0 69 0.0 0 0.0 4.3 15.3 288
14/01/2021 17:20 9.0 69 0.0 0 0.0 5.4 19.5 315
14/01/2021 17:30 8.9 69 0.0 0 0.0 4.8 17.4 318
14/01/2021 17:40 8.9 70 0.0 0 0.0 3.5 12.7 281
14/01/2021 17:50 8.5 72 0.0 0 0.0 3.0 10.9 279
14/01/2021 18:00 8.6 73 0.0 0 0.0 3.1 11.3 245
14/01/2021 18:10 8.7 73 0.0 0 0.0 2.6 9.3 248
14/01/2021 18:20 8.3 76 0.0 0 0.0 3.7 13.3 273
14/01/2021 18:30 8.2 77 0.0 0 0.0 5.1 18.3 290
14/01/2021 18:40 8.2 77 0.0 0 0.0 6.5 23.5 323
14/01/2021 18:50 8.5 75 0.0 0 0.0 7.1 25.7 322
14/01/2021 19:00 8.6 76 0.0 0 0.0 5.9 21.1 329
14/01/2021 19:10 8.6 75 0.0 0 0.0 7.0 25.3 324
14/01/2021 19:20 8.7 74 0.0 0 0.0 6.4 23.0 334
14/01/2021 19:30 9.0 73 0.0 0 0.0 5.4 19.3 321
14/01/2021 19:40 9.1 72 0.0 0 0.0 6.7 24.2 310
14/01/2021 19:50 9.3 71 0.0 0 0.0 6.1 22.1 330
14/01/2021 20:00 8.9 73 0.0 0 0.0 6.9 24.9 333
14/01/2021 20:10 9.0 74 0.0 0 0.0 7.1 25.5 330
14/01/2021 20:20 8.9 73 0.0 0 0.0 6.9 24.8 331
14/01/2021 20:30 8.7 75 0.0 0 0.0 7.1 25.6 321
14/01/2021 20:40 9.0 70 0.0 0 0.0 5.4 19.5 326
14/01/2021 20:50 9.2 67 0.0 0 0.0 6.9 24.7 310
14/01/2021 21:00 9.1 68 0.0 0 0.0 5.9 21.2 328
14/01/2021 21:10 9.1 69 0.0 0 0.0 7.4 26.6 336
14/01/2021 21:20 9.2 66 0.0 0 0.0 6.3 22.6 319
14/01/2021 21:30 9.3 64 0.0 0 0.0 5.8 20.7 309
14/01/2021 21:40 8.9 68 0.0 0 0.0 4.0 14.2 301
14/01/2021 21:50 8.8 68 0.0 0 0.0 4.0 14.4 310
14/01/2021 22:00 8.9 68 0.0 0 0.0 5.5 19.9 328
14/01/2021 22:10 8.7 67 0.0 0 0.0 7.5 26.9 317
14/01/2021 22:20 8.8 64 0.0 0 0.0 7.1 25.5 317
14/01/2021 22:30 9.1 60 0.0 0 0.0 6.2 22.5 300
14/01/2021 22:40 9.1 61 0.0 0 0.0 3.2 11.6 304
14/01/2021 22:50 9.0 61 0.0 0 0.0 3.9 14.0 277
14/01/2021 23:00 8.9 61 0.0 0 0.0 2.8 10.0 243
14/01/2021 23:10 8.7 61 0.0 0 0.0 3.7 13.3 278
14/01/2021 23:20 8.6 60 0.0 0 0.0 3.8 13.6 264
14/01/2021 23:30 8.5 59 0.0 0 0.0 4.5 16.1 280
14/01/2021 23:40 8.3 58 0.0 0 0.0 3.9 13.9 290
14/01/2021 23:50 8.3 58 0.0 0 0.0 5.2 18.7 295
Anterior Página 1 de 1 Siguiente

NOTA: Tipo de datos según el color:
   - Valores diarios o 10 minutos correctos
   - Valores diarios calculados a partir de un número de datos 10 minutos menor que 144 y mayor que 120, o de un número de datos semihorarios menor que 48 y mayor que 40 (caso de las estaciones de INTIA Y Ministerio)
   - Valores diez minutos estimados


Contacto        Enlaces        Aviso legal